Time;durP1;ratioP1;P1;durP2;ratioP2;P2;SDS_P1;SDS_P2;PMS_P1;PMS_P2;Temp;Humidity;BMP_temperature;BMP_pressure;BME280_temperature;BME280_humidity;BME280_pressure;Samples;Min_cycle;Max_cycle;Signal;HPM_P1;HPM_P2
2022/05/14 00:01:03;;;;;;;4.67;3.77;;;13.30;99.90;;;;;;4989370;28;21054;-69
2022/05/14 00:03:31;;;;;;;3.30;3.00;;;13.30;99.90;;;;;;4993245;28;20431;-69
2022/05/14 00:05:59;;;;;;;3.80;3.50;;;13.30;99.90;;;;;;4989458;28;20855;-69
2022/05/14 00:08:25;;;;;;;7.70;3.50;;;13.20;99.90;;;;;;4990547;28;20477;-69
2022/05/14 00:13:35;;;;;;;4.07;3.70;;;13.20;99.90;;;;;;4992716;28;20430;-69
2022/05/14 00:16:02;;;;;;;5.93;3.57;;;13.20;99.90;;;;;;4981395;28;20439;-68
2022/05/14 00:18:28;;;;;;;9.13;3.80;;;13.20;99.90;;;;;;4980617;28;20834;-68
2022/05/14 00:20:53;;;;;;;8.50;3.47;;;13.10;99.90;;;;;;4987459;28;20442;-68
2022/05/14 00:23:19;;;;;;;5.90;3.03;;;13.10;99.90;;;;;;4988241;28;20172;-68
2022/05/14 00:25:45;;;;;;;4.40;3.63;;;13.10;99.90;;;;;;4983755;28;20689;-70
2022/05/14 00:28:11;;;;;;;7.30;3.50;;;13.00;99.90;;;;;;4990336;28;20206;-69
2022/05/14 00:30:37;;;;;;;5.47;3.80;;;13.00;99.90;;;;;;4983695;28;20432;-69
2022/05/14 00:33:04;;;;;;;4.63;3.70;;;13.00;99.90;;;;;;4991395;28;20449;-70
2022/05/14 00:35:30;;;;;;;4.67;3.30;;;13.00;99.90;;;;;;4991976;28;20558;-69
2022/05/14 00:37:55;;;;;;;3.67;2.90;;;13.00;99.90;;;;;;4989588;28;20477;-70
2022/05/14 00:40:44;;;;;;;6.07;3.03;;;13.00;99.90;;;;;;4986859;28;20236;-69
2022/05/14 00:43:10;;;;;;;2.67;2.47;;;13.00;99.90;;;;;;4994671;28;20262;-70
2022/05/14 00:45:52;;;;;;;6.07;2.80;;;13.00;99.90;;;;;;4992619;28;20922;-69
2022/05/14 00:48:18;;;;;;;3.63;2.80;;;12.90;99.90;;;;;;4986507;28;20538;-70
2022/05/14 00:50:49;;;;;;;2.83;2.13;;;13.00;99.90;;;;;;4985436;28;21012;-69
2022/05/14 00:53:21;;;;;;;3.37;2.47;;;12.90;99.90;;;;;;4991324;28;20462;-69
2022/05/14 00:55:50;;;;;;;4.67;2.40;;;12.90;99.90;;;;;;4994939;28;20810;-69
2022/05/14 00:58:35;;;;;;;3.27;2.23;;;12.90;99.90;;;;;;4996784;28;20508;-69
2022/05/14 01:01:00;;;;;;;3.20;2.57;;;12.80;99.90;;;;;;4989405;28;20437;-70
2022/05/14 01:03:26;;;;;;;2.90;2.60;;;12.80;99.90;;;;;;4988209;28;20432;-69
2022/05/14 01:05:53;;;;;;;3.73;2.37;;;12.80;99.90;;;;;;4990921;28;20553;-69
2022/05/14 01:08:19;;;;;;;3.10;2.30;;;12.80;99.90;;;;;;4994776;28;20199;-69
2022/05/14 01:10:46;;;;;;;3.67;2.47;;;12.70;99.90;;;;;;4990452;28;20434;-70
2022/05/14 01:13:13;;;;;;;3.87;2.33;;;12.70;99.90;;;;;;4986216;28;20979;-70
2022/05/14 01:15:49;;;;;;;5.97;4.13;;;12.70;99.90;;;;;;4994312;28;20927;-69
2022/05/14 01:18:17;;;;;;;2.83;2.40;;;12.70;99.90;;;;;;4987502;28;20449;-70
2022/05/14 01:20:50;;;;;;;5.23;2.70;;;12.70;99.90;;;;;;4984572;28;20431;-69
2022/05/14 01:26:29;;;;;;;5.67;2.77;;;12.60;99.90;;;;;;4983167;28;20478;-69
2022/05/14 01:29:01;;;;;;;3.27;2.80;;;12.60;99.90;;;;;;4989875;28;20489;-69
2022/05/14 01:31:27;;;;;;;4.73;2.63;;;12.60;99.90;;;;;;4986492;28;20450;-70
2022/05/14 01:33:55;;;;;;;4.67;2.93;;;12.60;99.90;;;;;;4984759;28;20994;-70
2022/05/14 01:36:21;;;;;;;4.50;2.93;;;12.60;99.90;;;;;;4982339;28;20451;-69
2022/05/14 01:38:47;;;;;;;6.70;2.93;;;12.60;99.90;;;;;;4986476;28;20612;-70
2022/05/14 01:41:12;;;;;;;4.17;3.00;;;12.60;99.90;;;;;;4987781;28;20431;-70
2022/05/14 01:43:39;;;;;;;6.87;2.80;;;12.60;99.90;;;;;;4993269;28;20543;-70
2022/05/14 01:46:05;;;;;;;2.90;2.30;;;12.50;99.90;;;;;;4988230;28;20186;-70
2022/05/14 01:48:31;;;;;;;2.03;1.83;;;12.50;99.90;;;;;;4991290;28;20454;-70
2022/05/14 01:50:56;;;;;;;3.13;2.40;;;12.40;99.90;;;;;;4987721;28;20434;-70
2022/05/14 01:53:22;;;;;;;4.47;1.90;;;12.40;99.90;;;;;;4982981;28;20219;-70
2022/05/14 01:55:47;;;;;;;3.20;2.27;;;12.40;99.90;;;;;;4992972;28;20179;-70
2022/05/14 02:00:57;;;;;;;2.97;2.73;;;12.40;99.90;;;;;;4996575;28;20309;-70
2022/05/14 02:03:22;;;;;;;2.50;2.00;;;12.40;99.90;;;;;;4986004;28;20436;-69
2022/05/14 02:05:48;;;;;;;2.73;2.50;;;12.30;99.90;;;;;;4989768;28;20211;-70
2022/05/14 02:08:14;;;;;;;4.60;2.70;;;12.30;99.90;;;;;;4985909;28;20199;-70
2022/05/14 02:10:40;;;;;;;2.53;2.20;;;12.20;99.90;;;;;;4987646;28;20520;-69
2022/05/14 02:13:05;;;;;;;3.60;2.80;;;12.20;99.90;;;;;;4993570;28;20521;-70
2022/05/14 02:15:31;;;;;;;3.77;2.37;;;12.10;99.90;;;;;;4992163;28;20207;-70
2022/05/14 02:17:57;;;;;;;5.43;2.53;;;12.10;99.90;;;;;;4997050;28;20207;-70
2022/05/14 02:20:24;;;;;;;3.73;3.43;;;12.10;99.90;;;;;;4987069;28;20299;-70
2022/05/14 02:22:49;;;;;;;5.83;2.23;;;12.10;99.90;;;;;;4986156;28;20435;-70
2022/05/14 02:25:15;;;;;;;2.73;2.43;;;12.10;99.90;;;;;;4991238;28;20442;-70
2022/05/14 02:27:41;;;;;;;6.03;2.60;;;12.00;99.90;;;;;;4987773;28;20186;-70
2022/05/14 02:30:07;;;;;;;3.03;2.20;;;12.00;99.90;;;;;;4985278;28;20427;-69
2022/05/14 02:32:32;;;;;;;4.23;2.80;;;12.00;99.90;;;;;;4988256;28;20234;-70
2022/05/14 02:34:59;;;;;;;6.33;2.73;;;12.00;99.90;;;;;;4992485;28;20447;-70
2022/05/14 02:37:26;;;;;;;4.50;2.70;;;12.00;99.90;;;;;;4989327;28;20195;-70
2022/05/14 02:39:52;;;;;;;3.00;2.50;;;11.90;99.90;;;;;;4983287;28;20482;-70
2022/05/14 02:42:18;;;;;;;6.70;2.90;;;11.90;99.90;;;;;;4988572;28;20438;-70
2022/05/14 02:44:44;;;;;;;3.83;2.80;;;11.80;99.90;;;;;;4990827;28;20572;-70
2022/05/14 02:47:10;;;;;;;3.73;3.43;;;11.80;99.90;;;;;;4981205;28;20484;-70
2022/05/14 02:49:36;;;;;;;3.27;2.73;;;11.70;99.90;;;;;;4982227;28;20294;-70
2022/05/14 02:52:01;;;;;;;3.97;2.93;;;11.60;99.90;;;;;;4994525;28;20188;-70
2022/05/14 02:54:27;;;;;;;3.13;2.63;;;11.60;99.90;;;;;;4987291;28;20183;-70
2022/05/14 02:56:52;;;;;;;4.40;2.93;;;11.60;99.90;;;;;;4990786;28;20183;-70
2022/05/14 02:59:18;;;;;;;3.00;2.73;;;11.60;99.90;;;;;;4986809;28;20669;-70
2022/05/14 03:01:49;;;;;;;3.57;2.67;;;11.60;99.90;;;;;;4995165;28;20176;-70
2022/05/14 03:04:28;;;;;;;2.87;2.43;;;11.60;99.90;;;;;;4988561;28;20445;-70
2022/05/14 03:06:55;;;;;;;4.10;2.87;;;11.60;99.90;;;;;;4987711;28;20441;-69
2022/05/14 03:09:21;;;;;;;6.90;3.33;;;11.60;99.90;;;;;;4989509;28;20466;-69
2022/05/14 03:11:47;;;;;;;4.47;3.47;;;11.60;99.90;;;;;;4992314;28;20529;-70
2022/05/14 03:14:13;;;;;;;5.90;3.20;;;11.50;99.90;;;;;;4988292;28;20183;-70
2022/05/14 03:16:43;;;;;;;5.37;3.30;;;11.50;99.90;;;;;;4994373;28;20191;-70
2022/05/14 03:19:10;;;;;;;3.40;3.10;;;11.40;99.90;;;;;;4988015;28;21011;-70
2022/05/14 03:21:36;;;;;;;3.97;3.67;;;11.30;99.90;;;;;;4982542;28;20842;-70
2022/05/14 03:24:02;;;;;;;5.23;3.23;;;11.20;99.90;;;;;;4991272;28;20446;-70
2022/05/14 03:26:27;;;;;;;11.73;3.50;;;11.20;99.90;;;;;;4985638;28;20435;-70
2022/05/14 03:28:53;;;;;;;3.90;3.47;;;11.10;99.90;;;;;;4997103;28;20301;-70
2022/05/14 03:31:19;;;;;;;3.63;2.60;;;11.10;99.90;;;;;;4995377;28;20215;-70
2022/05/14 03:33:45;;;;;;;7.80;2.97;;;11.00;99.90;;;;;;4988840;28;20255;-70
2022/05/14 03:36:11;;;;;;;5.80;3.70;;;11.00;99.90;;;;;;4985792;28;20458;-70
2022/05/14 03:38:37;;;;;;;3.50;3.20;;;10.90;99.90;;;;;;4991525;28;20261;-70
2022/05/14 03:41:03;;;;;;;5.63;3.53;;;10.90;99.90;;;;;;4990150;28;20188;-70
2022/05/14 03:43:30;;;;;;;5.50;3.50;;;10.80;99.90;;;;;;4993406;28;20450;-70
2022/05/14 03:45:56;;;;;;;3.43;3.07;;;10.80;99.90;;;;;;5000521;28;20528;-70
2022/05/14 03:48:21;;;;;;;4.60;3.13;;;10.80;99.90;;;;;;4996667;28;20545;-69
2022/05/14 03:50:47;;;;;;;3.53;3.20;;;10.90;99.90;;;;;;4987217;28;20241;-70
2022/05/14 03:53:13;;;;;;;7.63;3.50;;;10.90;99.90;;;;;;5010149;23;20757;-70
2022/05/14 03:55:38;;;;;;;3.03;2.83;;;11.00;99.90;;;;;;4989203;28;20168;-70
2022/05/14 03:58:04;;;;;;;4.20;3.90;;;11.00;99.90;;;;;;4991592;28;20234;-69
2022/05/14 04:00:30;;;;;;;4.60;3.07;;;11.00;99.90;;;;;;4989682;28;20211;-69
2022/05/14 04:02:55;;;;;;;5.53;4.00;;;11.10;99.90;;;;;;4986254;28;20287;-70
2022/05/14 04:05:21;;;;;;;7.30;3.90;;;11.20;99.90;;;;;;4972693;28;20700;-69
2022/05/14 04:07:47;;;;;;;7.00;4.37;;;11.40;99.90;;;;;;4973438;28;20233;-69
2022/05/14 04:10:16;;;;;;;11.03;5.30;;;11.50;99.90;;;;;;4971606;28;20204;-69
2022/05/14 04:12:42;;;;;;;9.83;7.00;;;11.50;99.90;;;;;;4972917;28;21007;-69
2022/05/14 04:15:08;;;;;;;5.67;4.13;;;11.60;99.90;;;;;;4970524;28;20475;-69
2022/05/14 04:17:34;;;;;;;8.17;6.27;;;11.70;99.90;;;;;;4973059;28;20478;-69
2022/05/14 04:19:59;;;;;;;5.13;4.63;;;11.70;99.90;;;;;;4971776;28;20869;-69
2022/05/14 04:22:25;;;;;;;4.50;4.10;;;11.60;99.90;;;;;;4971611;28;20223;-69
2022/05/14 04:24:51;;;;;;;5.73;5.00;;;11.60;99.90;;;;;;4962063;28;20181;-70
2022/05/14 04:27:16;;;;;;;9.30;4.80;;;11.70;99.90;;;;;;4970887;28;20188;-70
2022/05/14 04:29:42;;;;;;;6.40;5.43;;;11.80;99.90;;;;;;4970135;28;20603;-69
2022/05/14 04:32:08;;;;;;;5.57;3.50;;;11.90;99.90;;;;;;4971024;28;20391;-69
2022/05/14 04:34:33;;;;;;;4.10;3.80;;;12.00;99.90;;;;;;4970763;28;20198;-69
2022/05/14 04:36:59;;;;;;;5.00;3.30;;;12.10;99.90;;;;;;4973050;28;20522;-69
2022/05/14 04:39:31;;;;;;;4.70;3.50;;;12.10;99.90;;;;;;4971044;28;20596;-69
2022/05/14 04:41:59;;;;;;;3.93;3.37;;;12.20;99.90;;;;;;4970505;28;20657;-69
2022/05/14 04:44:24;;;;;;;3.50;3.20;;;12.20;99.90;;;;;;4971645;28;20853;-69
2022/05/14 04:46:50;;;;;;;4.97;4.27;;;12.20;99.90;;;;;;4972794;28;20478;-69
2022/05/14 04:49:16;;;;;;;5.53;3.30;;;12.40;99.90;;;;;;4968333;28;20212;-69
2022/05/14 04:51:41;;;;;;;4.93;3.87;;;12.50;99.90;;;;;;4971518;28;20382;-69
2022/05/14 04:54:07;;;;;;;3.67;3.37;;;12.60;99.90;;;;;;4970458;28;20874;-69
2022/05/14 04:56:33;;;;;;;5.07;3.87;;;12.70;99.90;;;;;;4970319;28;20173;-70
2022/05/14 04:58:58;;;;;;;6.77;3.60;;;12.80;99.90;;;;;;4971224;28;20262;-69
2022/05/14 05:01:24;;;;;;;4.80;3.53;;;12.90;99.90;;;;;;4972095;28;20184;-69
2022/05/14 05:03:49;;;;;;;3.73;3.43;;;13.00;99.90;;;;;;4971240;28;20731;-69
2022/05/14 05:06:15;;;;;;;3.97;3.20;;;13.20;99.90;;;;;;4970976;28;20188;-70
2022/05/14 05:08:40;;;;;;;4.80;3.20;;;13.30;99.90;;;;;;4971099;28;20196;-69
2022/05/14 05:11:06;;;;;;;3.47;3.17;;;13.40;99.90;;;;;;4970108;28;20211;-70
2022/05/14 05:13:33;;;;;;;3.43;3.13;;;13.40;99.90;;;;;;4972055;28;20207;-69
2022/05/14 05:15:58;;;;;;;4.03;3.30;;;13.40;99.90;;;;;;4972792;28;20662;-69
2022/05/14 05:18:24;;;;;;;3.90;3.70;;;13.60;99.90;;;;;;4970795;28;20470;-69
2022/05/14 05:20:51;;;;;;;5.97;3.37;;;13.60;99.90;;;;;;4971562;28;20204;-69
2022/05/14 05:23:19;;;;;;;4.00;3.60;;;13.80;99.90;;;;;;4971387;28;20665;-69
2022/05/14 05:25:46;;;;;;;8.57;3.90;;;14.00;99.90;;;;;;4972351;28;20443;-69
2022/05/14 05:28:12;;;;;;;6.43;3.43;;;14.30;99.90;;;;;;4971100;28;20439;-69
2022/05/14 05:30:37;;;;;;;4.23;3.37;;;14.50;99.90;;;;;;4972450;28;20982;-70
2022/05/14 05:33:03;;;;;;;4.93;3.20;;;14.70;99.90;;;;;;4970379;28;20635;-70
2022/05/14 05:35:29;;;;;;;3.20;2.60;;;14.80;99.90;;;;;;4971176;28;20180;-69
2022/05/14 05:37:54;;;;;;;4.63;3.20;;;15.00;99.90;;;;;;4971022;28;20184;-69
2022/05/14 05:40:20;;;;;;;4.90;3.47;;;15.10;99.90;;;;;;4970818;28;20286;-69
2022/05/14 05:42:46;;;;;;;4.60;3.67;;;15.20;99.90;;;;;;4972045;28;20196;-69
2022/05/14 05:45:13;;;;;;;4.03;3.17;;;15.20;99.90;;;;;;4971955;28;20629;-70
2022/05/14 05:47:39;;;;;;;3.17;2.83;;;15.20;99.90;;;;;;4971306;28;20203;-69
2022/05/14 05:50:06;;;;;;;3.00;2.73;;;15.20;99.90;;;;;;4970450;28;20474;-69
2022/05/14 05:52:32;;;;;;;3.93;2.73;;;15.30;99.90;;;;;;4971673;28;20527;-70
2022/05/14 05:57:44;;;;;;;5.90;2.90;;;15.40;99.90;;;;;;4970641;28;20447;-69
2022/05/14 06:00:22;;;;;;;4.73;3.30;;;15.40;99.90;;;;;;4968911;28;20527;-70
2022/05/14 06:02:47;;;;;;;2.70;2.50;;;15.50;99.90;;;;;;4966727;28;21021;-70
2022/05/14 06:05:14;;;;;;;3.40;3.10;;;15.70;99.90;;;;;;4972407;28;20435;-70
2022/05/14 06:07:40;;;;;;;6.57;4.03;;;15.90;99.90;;;;;;4971522;28;20191;-74
2022/05/14 06:10:08;;;;;;;3.10;2.80;;;16.20;99.90;;;;;;4969120;28;20879;-73
2022/05/14 06:12:36;;;;;;;4.40;3.00;;;16.40;99.90;;;;;;4966979;28;20181;-73
2022/05/14 06:15:02;;;;;;;3.40;2.90;;;16.50;99.90;;;;;;4972159;28;20947;-73
2022/05/14 06:17:28;;;;;;;5.50;2.97;;;16.60;99.90;;;;;;4972404;28;20440;-73
2022/05/14 06:19:54;;;;;;;4.03;2.80;;;16.80;99.90;;;;;;4972673;28;20430;-70
2022/05/14 06:22:20;;;;;;;2.80;2.60;;;16.90;99.90;;;;;;4964102;28;20259;-73
2022/05/14 06:24:45;;;;;;;3.20;2.80;;;17.10;99.90;;;;;;4971740;28;20793;-72
2022/05/14 06:27:11;;;;;;;4.30;2.87;;;17.20;99.90;;;;;;4970335;28;20616;-66
2022/05/14 06:29:36;;;;;;;4.50;2.90;;;17.20;99.90;;;;;;4971488;28;20212;-72
2022/05/14 06:32:02;;;;;;;3.13;2.57;;;17.50;99.90;;;;;;4971438;28;20187;-72
2022/05/14 06:34:28;;;;;;;4.83;2.70;;;17.60;99.90;;;;;;4970868;28;20200;-72
2022/05/14 06:36:53;;;;;;;5.77;3.07;;;17.50;99.90;;;;;;4963499;28;20184;-72
2022/05/14 06:39:19;;;;;;;2.73;2.53;;;17.50;99.90;;;;;;4970496;28;20179;-71
2022/05/14 06:41:45;;;;;;;4.33;2.73;;;17.80;99.90;;;;;;4968141;28;20180;-69
2022/05/14 06:44:11;;;;;;;5.73;3.90;;;18.00;99.90;;;;;;4970090;28;20988;-72
2022/05/14 06:46:36;;;;;;;6.60;4.37;;;18.10;99.90;;;;;;4969343;28;20328;-72
2022/05/14 06:49:03;;;;;;;2.77;2.57;;;18.50;99.90;;;;;;4973058;28;20695;-72
2022/05/14 06:51:31;;;;;;;4.77;2.30;;;18.60;99.90;;;;;;4974135;28;20184;-71
2022/05/14 06:54:03;;;;;;;3.83;2.20;;;18.60;99.90;;;;;;4972824;28;20475;-71
2022/05/14 06:56:32;;;;;;;2.80;2.50;;;18.60;99.90;;;;;;4975617;28;20435;-71
2022/05/14 06:58:59;;;;;;;3.63;2.63;;;18.60;99.90;;;;;;4972311;28;20944;-72
2022/05/14 07:01:25;;;;;;;3.20;2.90;;;18.60;99.90;;;;;;4969010;28;20444;-72
2022/05/14 07:06:38;;;;;;;2.13;1.90;;;19.60;99.90;;;;;;4973933;28;20454;-71
2022/05/14 07:09:20;;;;;;;1.97;1.60;;;19.90;99.90;;;;;;4971799;28;20467;-71
2022/05/14 07:11:49;;;;;;;1.90;1.70;;;20.20;98.20;;;;;;4973511;28;20188;-71
2022/05/14 07:14:18;;;;;;;7.10;2.03;;;20.30;95.40;;;;;;4973662;28;20991;-72
2022/05/14 07:16:45;;;;;;;6.53;1.90;;;20.40;95.20;;;;;;4974399;28;21020;-72
2022/05/14 07:19:11;;;;;;;3.00;2.27;;;20.70;95.20;;;;;;4968002;28;20471;-70
2022/05/14 07:21:38;;;;;;;4.40;1.90;;;21.00;92.60;;;;;;4972266;28;20598;-72
2022/05/14 07:24:07;;;;;;;2.03;1.50;;;21.20;93.10;;;;;;4969674;28;20463;-72
2022/05/14 07:26:35;;;;;;;3.10;2.10;;;21.50;92.60;;;;;;4973942;28;20514;-72
2022/05/14 07:29:03;;;;;;;3.00;1.97;;;21.60;92.10;;;;;;4971857;28;20473;-71
2022/05/14 07:31:29;;;;;;;2.70;1.40;;;21.60;91.00;;;;;;4971633;28;20435;-71
2022/05/14 07:33:54;;;;;;;1.87;1.60;;;21.50;91.60;;;;;;4973917;28;20788;-71
2022/05/14 07:36:22;;;;;;;4.70;2.00;;;21.50;91.60;;;;;;4971466;28;20631;-72
2022/05/14 07:38:48;;;;;;;3.03;2.10;;;21.90;92.40;;;;;;4972043;28;20235;-72
2022/05/14 07:41:15;;;;;;;2.47;1.83;;;22.10;92.50;;;;;;4972692;28;20443;-72
2022/05/14 07:43:43;;;;;;;2.43;1.90;;;22.20;92.10;;;;;;4972916;28;20463;-71
2022/05/14 07:46:16;;;;;;;2.50;2.30;;;22.40;91.10;;;;;;4972534;28;20454;-72
2022/05/14 07:48:43;;;;;;;2.60;2.00;;;22.70;90.50;;;;;;4973601;28;20463;-71
2022/05/14 07:51:11;;;;;;;7.23;4.87;;;22.90;90.00;;;;;;4970784;28;20444;-73
2022/05/14 07:53:37;;;;;;;1.77;1.57;;;23.30;87.90;;;;;;4974472;28;20509;-72
2022/05/14 07:56:04;;;;;;;3.47;1.70;;;23.60;82.30;;;;;;4971121;28;20442;-72
2022/05/14 07:58:30;;;;;;;2.73;1.43;;;23.70;79.40;;;;;;4971964;28;20544;-71
2022/05/14 08:00:56;;;;;;;2.80;2.03;;;23.60;78.90;;;;;;4972864;28;21002;-72
2022/05/14 08:03:24;;;;;;;7.83;3.30;;;23.70;79.20;;;;;;4970567;28;20228;-70
2022/05/14 08:05:50;;;;;;;2.40;2.13;;;23.90;79.30;;;;;;4966024;28;20952;-72
2022/05/14 08:08:16;;;;;;;2.30;1.63;;;23.90;76.30;;;;;;4973255;28;20439;-72
2022/05/14 08:10:41;;;;;;;3.93;1.87;;;24.10;74.40;;;;;;4972025;28;20471;-71
2022/05/14 08:13:07;;;;;;;3.37;1.83;;;24.20;75.00;;;;;;4986978;28;20204;-71
2022/05/14 08:15:33;;;;;;;2.10;1.70;;;24.20;74.50;;;;;;4968311;28;20264;-69
2022/05/14 08:17:58;;;;;;;2.43;1.53;;;24.40;73.80;;;;;;4966606;28;20226;-71
2022/05/14 08:20:24;;;;;;;4.40;1.77;;;24.30;73.60;;;;;;4972212;28;20184;-69
2022/05/14 08:25:34;;;;;;;3.23;1.73;;;24.40;70.50;;;;;;4972813;28;20447;-68
2022/05/14 08:28:00;;;;;;;2.40;1.67;;;24.00;72.90;;;;;;4970610;28;20435;-69
2022/05/14 08:30:29;;;;;;;3.13;1.73;;;23.90;72.20;;;;;;4972621;28;20630;-70
2022/05/14 08:32:55;;;;;;;2.50;2.10;;;24.40;71.80;;;;;;4970987;28;20288;-68
2022/05/14 08:35:22;;;;;;;4.70;1.50;;;24.20;70.30;;;;;;4972237;28;20861;-71
2022/05/14 08:37:50;;;;;;;2.20;2.00;;;24.00;69.90;;;;;;4971280;28;20201;-71
2022/05/14 08:40:25;;;;;;;3.30;2.23;;;24.40;69.70;;;;;;4972994;28;20462;-71
2022/05/14 08:42:53;;;;;;;2.77;1.80;;;24.60;67.90;;;;;;4966927;28;20499;-70
2022/05/14 08:45:22;;;;;;;3.90;1.67;;;24.40;69.80;;;;;;4965785;28;20526;-72
2022/05/14 08:47:56;;;;;;;2.00;1.40;;;24.90;68.00;;;;;;4971491;28;20800;-72
2022/05/14 08:50:29;;;;;;;6.27;3.33;;;25.10;66.80;;;;;;4972837;28;20984;-72
2022/05/14 08:53:00;;;;;;;3.23;2.23;;;25.70;68.00;;;;;;4972178;28;20498;-71
2022/05/14 08:55:36;;;;;;;2.80;2.17;;;25.70;65.80;;;;;;4964036;28;20471;-72
2022/05/14 08:58:24;;;;;;;4.50;2.20;;;25.30;64.90;;;;;;4970670;28;20945;-71
2022/05/14 09:00:49;;;;;;;3.10;2.13;;;25.50;65.70;;;;;;4972499;28;20851;-72
2022/05/14 09:03:22;;;;;;;4.70;2.20;;;25.70;64.70;;;;;;4972827;28;20451;-70
2022/05/14 09:05:55;;;;;;;4.90;1.60;;;25.90;63.20;;;;;;4972940;28;20638;-71
2022/05/14 09:08:20;;;;;;;2.23;2.13;;;26.40;63.80;;;;;;4971004;28;20438;-71
2022/05/14 09:10:59;;;;;;;4.03;2.40;;;26.50;63.70;;;;;;4971716;28;20471;-71
2022/05/14 09:13:25;;;;;;;2.40;1.73;;;26.60;62.20;;;;;;4970159;28;20199;-72
2022/05/14 09:15:55;;;;;;;3.63;2.10;;;26.60;63.40;;;;;;4969818;28;20937;-71
2022/05/14 09:18:29;;;;;;;2.30;1.80;;;26.50;61.50;;;;;;4970060;28;20493;-70
2022/05/14 09:21:03;;;;;;;4.43;2.07;;;26.60;61.10;;;;;;4971325;28;20446;-71
2022/05/14 09:23:37;;;;;;;2.80;1.50;;;27.10;63.20;;;;;;4972496;28;20479;-71
2022/05/14 09:26:11;;;;;;;2.27;1.80;;;26.90;59.70;;;;;;4971097;28;20494;-70
2022/05/14 09:28:41;;;;;;;1.97;1.70;;;27.40;60.00;;;;;;4969619;28;20435;-71
2022/05/14 09:31:08;;;;;;;2.43;1.87;;;27.60;58.70;;;;;;4972669;28;20518;-71
2022/05/14 09:33:42;;;;;;;2.27;1.97;;;28.20;57.70;;;;;;4970910;28;20874;-72
2022/05/14 09:36:15;;;;;;;4.33;1.97;;;28.30;58.40;;;;;;4970866;28;20459;-72
2022/05/14 09:38:42;;;;;;;1.57;1.47;;;28.80;56.80;;;;;;4971644;28;20610;-72
2022/05/14 09:41:21;;;;;;;1.53;1.43;;;28.80;56.20;;;;;;4971065;28;20439;-71
2022/05/14 09:43:52;;;;;;;4.30;2.23;;;29.00;54.50;;;;;;4969421;28;20557;-72
2022/05/14 09:46:34;;;;;;;1.90;1.80;;;29.30;53.50;;;;;;4971507;28;20844;-71
2022/05/14 09:49:03;;;;;;;2.90;2.03;;;29.60;51.80;;;;;;4970753;28;20463;-71
2022/05/14 09:51:38;;;;;;;4.67;2.50;;;30.30;50.70;;;;;;4971378;28;20527;-71
2022/05/14 09:54:07;;;;;;;2.10;1.90;;;30.60;49.60;;;;;;5002594;23;20536;-68
2022/05/14 09:56:51;;;;;;;2.17;1.60;;;29.80;51.00;;;;;;4990346;28;20431;-69
2022/05/14 09:59:29;;;;;;;1.83;1.70;;;30.90;48.40;;;;;;4983539;28;20431;-69
2022/05/14 10:02:22;;;;;;;2.63;2.40;;;31.50;46.40;;;;;;4990125;28;20512;-69
2022/05/14 10:05:20;;;;;;;1.97;1.77;;;31.50;45.40;;;;;;4974226;28;20455;-68
2022/05/14 10:08:26;;;;;;;6.03;2.37;;;31.40;45.30;;;;;;4967647;28;20816;-69
2022/05/14 10:11:14;;;;;;;3.40;1.60;;;30.30;43.90;;;;;;4931592;28;20463;-71
2022/05/14 10:14:05;;;;;;;1.63;1.53;;;30.30;42.70;;;;;;4971135;28;20963;-66
2022/05/14 10:16:59;;;;;;;1.60;1.50;;;31.20;41.10;;;;;;4970327;28;20519;-67
2022/05/14 10:19:56;;;;;;;2.43;1.60;;;32.00;41.30;;;;;;4969091;28;20427;-67
2022/05/14 10:26:45;;;;;;;5.23;1.87;;;33.80;45.50;;;;;;4957161;28;20523;-67
2022/05/14 10:28:22;;;;;;;2.60;2.00;;;34.00;44.20;;;;;;4967956;28;20494;-65
2022/05/14 10:30:59;;;;;;;2.73;2.10;;;33.70;43.50;;;;;;4975167;28;20995;-67
2022/05/14 10:33:29;;;;;;;3.00;2.10;;;32.70;45.20;;;;;;4975631;28;20994;-67
2022/05/14 10:36:09;;;;;;;2.53;1.93;;;33.50;44.00;;;;;;4974891;28;20450;-66
2022/05/14 10:38:57;;;;;;;2.03;1.60;;;34.80;43.10;;;;;;4975635;28;20431;-70
2022/05/14 10:41:46;;;;;;;2.93;1.63;;;35.70;42.20;;;;;;4975249;28;20467;-68
2022/05/14 10:44:29;;;;;;;2.63;1.73;;;36.90;36.80;;;;;;4967861;28;20463;-68
2022/05/14 10:47:00;;;;;;;2.13;1.70;;;36.90;35.20;;;;;;4975458;28;20431;-68
2022/05/14 10:49:52;;;;;;;2.13;1.90;;;38.20;34.40;;;;;;4974416;28;20446;-67
2022/05/14 10:52:18;;;;;;;4.80;1.90;;;37.90;36.50;;;;;;4959702;28;20455;-67
2022/05/14 10:54:44;;;;;;;3.00;2.70;;;38.70;36.90;;;;;;4973608;28;20658;-67
2022/05/14 10:57:19;;;;;;;3.30;3.00;;;39.30;35.40;;;;;;4975315;28;20323;-67
2022/05/14 11:00:24;;;;;;;2.23;2.13;;;38.00;35.30;;;;;;4972849;28;20461;-68
2022/05/14 11:03:20;;;;;;;2.33;1.90;;;38.40;36.30;;;;;;4893171;29;20458;-68
2022/05/14 11:05:53;;;;;;;3.33;2.00;;;39.80;35.00;;;;;;4971421;28;20949;-66
2022/05/14 11:08:30;;;;;;;2.07;1.97;;;40.40;34.00;;;;;;4970275;28;20447;-67
2022/05/14 11:11:14;;;;;;;2.07;1.90;;;40.30;33.60;;;;;;4975032;28;20529;-67
2022/05/14 11:13:40;;;;;;;3.97;2.43;;;39.80;33.80;;;;;;4973303;28;20459;-67
2022/05/14 11:16:10;;;;;;;4.17;1.80;;;38.60;33.70;;;;;;4974854;28;21228;-68
2022/05/14 11:18:54;;;;;;;4.47;3.03;;;38.60;34.20;;;;;;4974847;28;20443;-67
2022/05/14 11:21:32;;;;;;;2.30;1.80;;;39.40;33.40;;;;;;4969171;28;20490;-67
2022/05/14 11:24:00;;;;;;;4.97;3.60;;;40.10;32.80;;;;;;4974037;28;20574;-68
2022/05/14 11:26:28;;;;;;;3.73;2.53;;;39.10;33.30;;;;;;4975696;28;20451;-68
2022/05/14 11:29:14;;;;;;;3.10;2.00;;;39.30;32.80;;;;;;4973763;28;20447;-68
2022/05/14 11:32:07;;;;;;;4.43;2.30;;;39.70;32.20;;;;;;4973446;28;20948;-68
2022/05/14 11:34:33;;;;;;;3.80;2.47;;;39.90;32.50;;;;;;4968680;28;20473;-67
2022/05/14 11:37:02;;;;;;;2.47;2.10;;;39.70;32.50;;;;;;4971031;28;20447;-68
2022/05/14 11:39:36;;;;;;;2.77;2.53;;;39.30;32.40;;;;;;4972247;28;20459;-66
2022/05/14 11:42:25;;;;;;;2.70;2.40;;;39.80;32.40;;;;;;4971966;28;20952;-68
2022/05/14 11:45:13;;;;;;;3.33;2.37;;;40.80;32.00;;;;;;4974817;28;20463;-67
2022/05/14 11:48:11;;;;;;;6.27;2.50;;;41.20;31.00;;;;;;4972588;28;20994;-68
2022/05/14 11:50:50;;;;;;;3.60;2.43;;;41.70;30.50;;;;;;4970388;28;20439;-68
2022/05/14 11:53:41;;;;;;;2.77;2.57;;;42.10;31.00;;;;;;4972134;28;20972;-67
2022/05/14 11:56:15;;;;;;;2.20;2.10;;;42.00;33.10;;;;;;4973609;28;20451;-68
2022/05/14 11:58:46;;;;;;;4.27;1.90;;;41.80;30.30;;;;;;4972232;28;20446;-67
2022/05/14 12:01:28;;;;;;;1.77;1.63;;;40.80;29.50;;;;;;4968285;28;20436;-68
2022/05/14 12:03:54;;;;;;;2.10;1.67;;;38.70;31.30;;;;;;4972103;28;20847;-69
2022/05/14 12:06:23;;;;;;;2.60;2.00;;;36.90;30.70;;;;;;4976106;28;20454;-69
2022/05/14 12:09:06;;;;;;;2.20;1.97;;;39.50;31.50;;;;;;4978439;28;20439;-69
2022/05/14 12:11:38;;;;;;;3.17;2.00;;;40.10;31.30;;;;;;4977741;28;21010;-67
2022/05/14 12:14:17;;;;;;;2.40;2.20;;;39.90;30.50;;;;;;4977127;28;20556;-68
2022/05/14 12:16:50;;;;;;;2.30;2.10;;;40.00;30.90;;;;;;4979622;28;20443;-69
2022/05/14 12:19:37;;;;;;;2.70;2.50;;;39.40;31.60;;;;;;4969159;28;20470;-67
2022/05/14 12:22:16;;;;;;;2.20;2.07;;;38.70;31.90;;;;;;4973024;28;20447;-67
2022/05/14 12:24:56;;;;;;;3.47;2.70;;;38.70;31.80;;;;;;4964039;28;20451;-68
2022/05/14 12:27:22;;;;;;;6.10;2.47;;;38.80;31.60;;;;;;4970619;28;20431;-68
2022/05/14 12:33:11;;;;;;;3.20;1.87;;;39.60;30.70;;;;;;4973077;28;20448;-68
2022/05/14 12:33:13;;;;;;;4.10;2.27;;;40.70;30.60;;;;;;4974332;28;20860;-68
2022/05/14 12:35:49;;;;;;;4.73;2.97;;;41.40;29.30;;;;;;4973858;28;20450;-68
2022/05/14 12:38:27;;;;;;;3.07;2.77;;;42.70;29.30;;;;;;4973027;28;20447;-67
2022/05/14 12:40:53;;;;;;;5.37;2.07;;;44.10;42.00;;;;;;4972723;28;20837;-68
2022/05/14 12:43:19;;;;;;;2.97;1.90;;;44.50;43.90;;;;;;4973791;28;20459;-68
2022/05/14 12:46:01;;;;;;;2.53;2.03;;;41.70;41.10;;;;;;4972909;28;20929;-67
2022/05/14 12:48:26;;;;;;;2.67;1.90;;;42.60;41.10;;;;;;4973708;28;20551;-67
2022/05/14 12:50:55;;;;;;;2.70;2.30;;;42.90;41.50;;;;;;4968687;28;20635;-68
2022/05/14 12:53:33;;;;;;;2.60;2.40;;;43.10;42.00;;;;;;4974332;28;20204;-67
2022/05/14 12:55:59;;;;;;;2.20;2.10;;;43.60;42.30;;;;;;4974932;28;20435;-68
2022/05/14 12:58:25;;;;;;;5.20;2.13;;;43.30;43.10;;;;;;4971639;28;20439;-68
2022/05/14 13:00:52;;;;;;;2.80;2.40;;;44.60;44.00;;;;;;4970843;28;20558;-68
2022/05/14 13:03:29;;;;;;;2.90;2.00;;;44.40;42.80;;;;;;4974110;28;20459;-67
2022/05/14 13:06:00;;;;;;;2.00;1.90;;;44.60;41.90;;;;;;4972337;28;20454;-68
2022/05/14 13:08:27;;;;;;;2.40;2.20;;;42.60;42.40;;;;;;4973990;28;20439;-68
2022/05/14 13:10:56;;;;;;;2.50;2.37;;;43.50;42.20;;;;;;4973919;28;20952;-68
2022/05/14 13:13:31;;;;;;;3.80;2.53;;;43.90;41.40;;;;;;4966063;28;20967;-66
2022/05/14 13:15:56;;;;;;;2.30;2.10;;;42.90;41.50;;;;;;4971643;28;20529;-67
2022/05/14 13:18:31;;;;;;;2.40;2.10;;;43.10;40.80;;;;;;4973317;28;20518;-67
2022/05/14 13:21:14;;;;;;;1.70;1.60;;;42.40;40.20;;;;;;4970107;28;20215;-67
2022/05/14 13:24:00;;;;;;;2.33;1.73;;;41.60;40.50;;;;;;4970266;28;20815;-66